Time;durP1;ratioP1;P1;durP2;ratioP2;P2;SDS_P1;SDS_P2;PMS_P1;PMS_P2;Temp;Humidity;BMP_temperature;BMP_pressure;BME280_temperature;BME280_humidity;BME280_pressure;Samples;Min_cycle;Max_cycle;Signal;HPM_P1;HPM_P2
2022/11/11 00:00:21;;;;;;;34.17;18.83;;;;;;;;;;6620452;28;20241;-95
2022/11/11 00:03:32;;;;;;;30.40;17.43;;;;;;;;;;6624996;28;20202;-95
2022/11/11 00:06:44;;;;;;;28.13;17.03;;;;;;;;;;6625602;28;20628;-95
2022/11/11 00:09:55;;;;;;;34.97;18.10;;;;;;;;;;6626703;28;20639;-96
2022/11/11 00:13:06;;;;;;;25.23;16.23;;;;;;;;;;6625282;28;20182;-95
2022/11/11 00:16:19;;;;;;;31.37;17.10;;;;;;;;;;6626642;28;20245;-95
2022/11/11 00:26:29;;;;;;;28.47;16.30;;;;;;;;;;6627750;28;20195;-95
2022/11/11 00:29:39;;;;;;;26.60;16.27;;;;;;;;;;6625299;28;20176;-95
2022/11/11 00:32:51;;;;;;;29.23;15.47;;;;;;;;;;6626014;28;20548;-94
2022/11/11 00:36:01;;;;;;;27.90;15.43;;;;;;;;;;6625915;28;20203;-95
2022/11/11 00:39:13;;;;;;;31.90;16.17;;;;;;;;;;6608778;28;20199;-95
2022/11/11 00:42:25;;;;;;;24.20;14.63;;;;;;;;;;6625021;28;20229;-95
2022/11/11 00:45:36;;;;;;;24.63;13.97;;;;;;;;;;6626052;28;20540;-96
2022/11/11 00:52:17;;;;;;;22.93;14.43;;;;;;;;;;6626767;28;20259;-95
2022/11/11 00:55:27;;;;;;;22.67;13.93;;;;;;;;;;6625052;28;20261;-95
2022/11/11 00:58:40;;;;;;;24.23;14.43;;;;;;;;;;6624354;28;20231;-95
2022/11/11 01:01:50;;;;;;;21.73;14.47;;;;;;;;;;6625587;28;20199;-95
2022/11/11 01:05:01;;;;;;;23.97;14.83;;;;;;;;;;6623999;28;20183;-95
2022/11/11 01:08:13;;;;;;;25.40;15.00;;;;;;;;;;6624805;28;20176;-95
2022/11/11 01:11:23;;;;;;;25.93;15.00;;;;;;;;;;6623907;28;20176;-94
2022/11/11 01:14:34;;;;;;;20.43;13.87;;;;;;;;;;6623383;28;20524;-95
2022/11/11 01:17:45;;;;;;;22.13;13.93;;;;;;;;;;6623901;28;20235;-96
2022/11/11 01:21:03;;;;;;;22.80;14.50;;;;;;;;;;6624576;28;20570;-96
2022/11/11 01:24:15;;;;;;;27.83;15.30;;;;;;;;;;6624430;28;20242;-96
2022/11/11 01:27:26;;;;;;;24.83;15.43;;;;;;;;;;6624161;28;20180;-95
2022/11/11 01:30:37;;;;;;;27.03;14.80;;;;;;;;;;6623317;28;20198;-95
2022/11/11 01:33:47;;;;;;;25.20;14.67;;;;;;;;;;6623756;28;20515;-95
2022/11/11 01:37:00;;;;;;;22.93;15.03;;;;;;;;;;6623971;28;20545;-95
2022/11/11 01:40:10;;;;;;;25.70;15.70;;;;;;;;;;6624119;28;20164;-94
2022/11/11 01:43:22;;;;;;;22.83;14.33;;;;;;;;;;6622306;28;20528;-94
2022/11/11 01:46:57;;;;;;;25.33;15.60;;;;;;;;;;6624177;28;20271;-95
2022/11/11 01:50:08;;;;;;;25.13;15.37;;;;;;;;;;6619800;28;20529;-95
2022/11/11 01:53:18;;;;;;;21.83;14.83;;;;;;;;;;6623532;28;20203;-95
2022/11/11 01:56:29;;;;;;;25.83;15.50;;;;;;;;;;6623047;28;20206;-94
2022/11/11 01:59:41;;;;;;;23.97;15.17;;;;;;;;;;6624894;28;20251;-95
2022/11/11 02:03:03;;;;;;;25.00;15.00;;;;;;;;;;6622659;28;20187;-95
2022/11/11 02:06:15;;;;;;;29.50;14.63;;;;;;;;;;6624620;28;20258;-95
2022/11/11 02:09:26;;;;;;;22.43;14.47;;;;;;;;;;6622797;28;20640;-94
2022/11/11 02:16:06;;;;;;;22.87;14.57;;;;;;;;;;6623663;28;20291;-95
2022/11/11 02:19:25;;;;;;;27.23;14.73;;;;;;;;;;6621571;28;20179;-94
2022/11/11 02:22:57;;;;;;;24.60;16.67;;;;;;;;;;6622767;28;20183;-95
2022/11/11 02:26:08;;;;;;;19.37;13.27;;;;;;;;;;6621772;28;20639;-95
2022/11/11 02:29:21;;;;;;;18.53;13.03;;;;;;;;;;6622842;28;20167;-95
2022/11/11 02:32:32;;;;;;;21.67;14.10;;;;;;;;;;6622187;28;20182;-95
2022/11/11 02:35:44;;;;;;;21.00;13.33;;;;;;;;;;6622458;28;20175;-94
2022/11/11 02:38:56;;;;;;;20.90;13.67;;;;;;;;;;6622803;28;20215;-95
2022/11/11 02:42:09;;;;;;;18.47;13.80;;;;;;;;;;6623246;28;20166;-94
2022/11/11 02:45:19;;;;;;;18.67;13.57;;;;;;;;;;6621539;28;20260;-94
2022/11/11 02:48:30;;;;;;;18.00;12.50;;;;;;;;;;6622253;28;20662;-95
2022/11/11 02:51:40;;;;;;;16.17;12.73;;;;;;;;;;6604799;28;20179;-94
2022/11/11 02:54:51;;;;;;;19.20;12.97;;;;;;;;;;6621163;28;20539;-95
2022/11/11 02:58:03;;;;;;;14.73;11.50;;;;;;;;;;6638814;22;20283;-95
2022/11/11 03:01:18;;;;;;;17.00;12.40;;;;;;;;;;6647808;28;20181;-95
2022/11/11 03:04:28;;;;;;;15.60;11.50;;;;;;;;;;6647915;28;20258;-94
2022/11/11 03:07:39;;;;;;;19.10;11.07;;;;;;;;;;6630671;28;20187;-95
2022/11/11 03:10:49;;;;;;;17.77;12.10;;;;;;;;;;6647444;28;20216;-94
2022/11/11 03:13:59;;;;;;;17.77;12.23;;;;;;;;;;6646652;28;20269;-94
2022/11/11 03:24:07;;;;;;;20.17;11.73;;;;;;;;;;6648270;28;20654;-95
2022/11/11 03:27:18;;;;;;;16.53;11.80;;;;;;;;;;6646956;28;20182;-95
2022/11/11 03:30:30;;;;;;;15.70;11.90;;;;;;;;;;6646888;28;20179;-94
2022/11/11 03:33:40;;;;;;;17.97;11.97;;;;;;;;;;6648580;28;20512;-95
2022/11/11 03:40:21;;;;;;;17.70;11.80;;;;;;;;;;6653998;28;20162;-95
2022/11/11 03:43:34;;;;;;;19.33;12.27;;;;;;;;;;6653548;28;20201;-94
2022/11/11 03:46:44;;;;;;;19.40;11.83;;;;;;;;;;6652519;28;20175;-95
2022/11/11 03:49:56;;;;;;;17.07;11.97;;;;;;;;;;6652075;28;20178;-95
2022/11/11 03:53:06;;;;;;;16.77;12.20;;;;;;;;;;6652621;28;20182;-95
2022/11/11 03:56:18;;;;;;;17.47;12.13;;;;;;;;;;6651670;28;20206;-95
2022/11/11 03:59:30;;;;;;;16.83;12.27;;;;;;;;;;6652333;28;20234;-95
2022/11/11 04:16:38;;;;;;;17.00;11.80;;;;;;;;;;6653923;28;20248;-94
2022/11/11 04:23:21;;;;;;;22.43;12.87;;;;;;;;;;6657187;28;20528;-95
2022/11/11 04:26:33;;;;;;;17.13;12.10;;;;;;;;;;6640295;28;20179;-95
2022/11/11 04:29:46;;;;;;;18.80;12.20;;;;;;;;;;6656590;28;20635;-95
2022/11/11 04:32:59;;;;;;;20.03;12.30;;;;;;;;;;6653197;28;20267;-95
2022/11/11 04:36:09;;;;;;;18.10;12.27;;;;;;;;;;6653552;28;20207;-95
2022/11/11 04:42:51;;;;;;;19.53;12.33;;;;;;;;;;6654890;28;20638;-95
2022/11/11 04:46:03;;;;;;;17.63;12.43;;;;;;;;;;6652384;28;20193;-95
2022/11/11 04:49:14;;;;;;;20.03;12.33;;;;;;;;;;6652243;28;20175;-95
2022/11/11 04:52:25;;;;;;;16.07;12.33;;;;;;;;;;6652657;28;20198;-95
2022/11/11 04:59:16;;;;;;;15.10;11.37;;;;;;;;;;6654087;28;20261;-95
2022/11/11 05:09:27;;;;;;;17.33;12.07;;;;;;;;;;6654020;28;20174;-95
2022/11/11 05:12:44;;;;;;;20.77;12.43;;;;;;;;;;6653315;28;20205;-95
2022/11/11 05:22:52;;;;;;;19.47;13.70;;;;;;;;;;6653274;28;20680;-96
2022/11/11 05:26:02;;;;;;;20.50;13.17;;;;;;;;;;6652216;28;20170;-95
2022/11/11 05:29:13;;;;;;;21.53;13.93;;;;;;;;;;6651952;28;20175;-95
2022/11/11 05:32:24;;;;;;;20.67;15.17;;;;;;;;;;6651236;28;20175;-95
2022/11/11 05:35:35;;;;;;;21.30;14.53;;;;;;;;;;6651669;28;20266;-95
2022/11/11 05:38:47;;;;;;;22.03;14.80;;;;;;;;;;6651629;28;20226;-95
2022/11/11 05:41:57;;;;;;;18.10;12.43;;;;;;;;;;6634458;28;20179;-95
2022/11/11 05:45:08;;;;;;;20.23;14.00;;;;;;;;;;6650804;28;20186;-95
2022/11/11 05:48:19;;;;;;;17.87;12.77;;;;;;;;;;6649079;28;20206;-95
2022/11/11 05:51:30;;;;;;;17.43;12.90;;;;;;;;;;6650197;28;20179;-95
2022/11/11 05:54:41;;;;;;;20.97;13.10;;;;;;;;;;6649865;28;20212;-96
2022/11/11 05:57:51;;;;;;;16.60;12.20;;;;;;;;;;6649390;28;20679;-95
2022/11/11 06:01:02;;;;;;;18.50;12.07;;;;;;;;;;6649540;28;20206;-95
2022/11/11 06:04:14;;;;;;;17.37;12.43;;;;;;;;;;6632837;28;20217;-95
2022/11/11 06:07:25;;;;;;;18.67;12.33;;;;;;;;;;6650633;28;20186;-95
2022/11/11 06:10:37;;;;;;;19.53;12.63;;;;;;;;;;6648887;28;20186;-95
2022/11/11 06:13:48;;;;;;;17.60;12.00;;;;;;;;;;6629762;28;20184;-94
2022/11/11 06:16:58;;;;;;;15.27;11.63;;;;;;;;;;6595709;28;20250;-95
2022/11/11 06:20:09;;;;;;;16.37;12.23;;;;;;;;;;6596426;28;20176;-95
2022/11/11 06:23:20;;;;;;;18.37;12.03;;;;;;;;;;6596773;28;20671;-94
2022/11/11 06:26:32;;;;;;;14.43;11.93;;;;;;;;;;6596014;28;20189;-95
2022/11/11 06:29:42;;;;;;;17.57;11.50;;;;;;;;;;6595874;28;20226;-94
2022/11/11 06:32:53;;;;;;;15.40;10.80;;;;;;;;;;6596172;28;20508;-94
2022/11/11 06:36:06;;;;;;;15.03;11.67;;;;;;;;;;6595303;28;20327;-95
2022/11/11 06:39:16;;;;;;;19.57;12.00;;;;;;;;;;6595747;28;20246;-94
2022/11/11 06:42:34;;;;;;;14.77;11.30;;;;;;;;;;6579224;28;20541;-95
2022/11/11 06:45:48;;;;;;;15.10;11.73;;;;;;;;;;6598309;28;20195;-95
2022/11/11 06:49:00;;;;;;;15.60;10.77;;;;;;;;;;6597133;28;20176;-95
2022/11/11 06:52:11;;;;;;;16.70;11.70;;;;;;;;;;6597743;28;20184;-95
2022/11/11 06:55:22;;;;;;;16.90;11.60;;;;;;;;;;6596372;28;20206;-94
2022/11/11 06:58:33;;;;;;;16.40;12.20;;;;;;;;;;6594692;28;20240;-95
2022/11/11 07:01:46;;;;;;;14.27;11.47;;;;;;;;;;6595726;28;20237;-94
2022/11/11 07:04:57;;;;;;;12.00;9.57;;;;;;;;;;6595364;28;20276;-94
2022/11/11 07:08:09;;;;;;;14.37;10.37;;;;;;;;;;6596475;28;20176;-95
2022/11/11 07:11:20;;;;;;;18.93;10.67;;;;;;;;;;6594797;28;20179;-94
2022/11/11 07:14:31;;;;;;;13.17;10.80;;;;;;;;;;6578762;28;20215;-95
2022/11/11 07:17:43;;;;;;;15.57;11.97;;;;;;;;;;6594743;28;20208;-94
2022/11/11 07:20:55;;;;;;;13.43;10.27;;;;;;;;;;6595273;28;20210;-94
2022/11/11 07:24:05;;;;;;;15.17;11.93;;;;;;;;;;6594965;28;20184;-94
2022/11/11 07:27:17;;;;;;;13.57;10.60;;;;;;;;;;6594748;28;20207;-94
2022/11/11 07:30:27;;;;;;;14.47;10.67;;;;;;;;;;6596082;28;20187;-94
2022/11/11 07:33:37;;;;;;;13.27;10.93;;;;;;;;;;6594465;28;20613;-94
2022/11/11 07:36:48;;;;;;;15.37;11.13;;;;;;;;;;6594583;28;20210;-93
2022/11/11 07:39:58;;;;;;;13.60;11.47;;;;;;;;;;6596302;28;20176;-93
2022/11/11 07:43:08;;;;;;;14.60;11.23;;;;;;;;;;6594638;28;20529;-92
2022/11/11 07:46:19;;;;;;;13.93;10.13;;;;;;;;;;6594957;28;20207;-93
2022/11/11 07:49:29;;;;;;;12.77;10.07;;;;;;;;;;6595143;28;20187;-92
2022/11/11 07:52:40;;;;;;;18.33;15.67;;;;;;;;;;6596241;28;20177;-93
2022/11/11 07:55:50;;;;;;;15.27;12.93;;;;;;;;;;6596487;28;20720;-93
2022/11/11 07:59:00;;;;;;;23.93;20.40;;;;;;;;;;6594190;28;20318;-92
2022/11/11 08:02:11;;;;;;;14.33;11.93;;;;;;;;;;6595236;28;20242;-93
2022/11/11 08:05:22;;;;;;;12.93;9.87;;;;;;;;;;6594460;28;20263;-93
2022/11/11 08:08:32;;;;;;;12.57;10.13;;;;;;;;;;6594376;28;20177;-93
2022/11/11 08:15:11;;;;;;;10.50;8.10;;;;;;;;;;6620520;28;20539;-92
2022/11/11 08:18:21;;;;;;;12.57;8.10;;;;;;;;;;6619205;28;20207;-93
2022/11/11 08:21:31;;;;;;;12.03;8.93;;;;;;;;;;6617535;28;20170;-93
2022/11/11 08:24:42;;;;;;;8.60;7.73;;;;;;;;;;6624636;28;20631;-92
2022/11/11 08:27:56;;;;;;;11.90;8.20;;;;;;;;;;6625639;28;20191;-93
2022/11/11 08:31:06;;;;;;;11.63;8.17;;;;;;;;;;6625065;28;20176;-93
2022/11/11 08:34:16;;;;;;;11.03;8.70;;;;;;;;;;6625439;28;20180;-93
2022/11/11 08:37:27;;;;;;;10.63;9.07;;;;;;;;;;6624306;28;20558;-94
2022/11/11 08:40:37;;;;;;;14.63;9.60;;;;;;;;;;6623709;28;20180;-94
2022/11/11 08:43:54;;;;;;;14.63;9.53;;;;;;;;;;6623421;28;20688;-93
2022/11/11 08:47:04;;;;;;;11.20;9.17;;;;;;;;;;6619230;28;20190;-93
2022/11/11 08:50:15;;;;;;;12.67;8.83;;;;;;;;;;6623487;28;20164;-94
2022/11/11 08:53:26;;;;;;;11.03;7.90;;;;;;;;;;6624888;28;20632;-93
2022/11/11 08:56:36;;;;;;;13.47;8.33;;;;;;;;;;6623904;28;20753;-94
2022/11/11 08:59:46;;;;;;;13.10;8.77;;;;;;;;;;6622230;28;20228;-93
2022/11/11 09:03:04;;;;;;;16.17;11.10;;;;;;;;;;6624024;28;20175;-93
2022/11/11 09:06:15;;;;;;;12.27;9.33;;;;;;;;;;6623311;28;20176;-93
2022/11/11 09:09:25;;;;;;;15.07;9.73;;;;;;;;;;6624299;28;20187;-92
2022/11/11 09:12:37;;;;;;;14.20;9.73;;;;;;;;;;6623728;28;20176;-94
2022/11/11 09:15:47;;;;;;;13.33;9.40;;;;;;;;;;6622883;28;20183;-93
2022/11/11 09:18:57;;;;;;;10.77;8.67;;;;;;;;;;6625116;28;20187;-93
2022/11/11 09:22:08;;;;;;;14.93;8.93;;;;;;;;;;6624331;28;20180;-94
2022/11/11 09:25:18;;;;;;;14.40;8.97;;;;;;;;;;6624247;28;20187;-92
2022/11/11 09:28:30;;;;;;;13.00;8.50;;;;;;;;;;6624497;28;20834;-92
2022/11/11 09:31:40;;;;;;;11.00;8.07;;;;;;;;;;6623373;28;20624;-91
2022/11/11 09:34:50;;;;;;;12.07;7.73;;;;;;;;;;6623796;28;20179;-92
2022/11/11 09:38:01;;;;;;;13.63;9.20;;;;;;;;;;6624374;28;20200;-92
2022/11/11 09:41:20;;;;;;;12.47;8.33;;;;;;;;;;6624180;28;20243;-92
2022/11/11 09:44:42;;;;;;;12.27;8.10;;;;;;;;;;6624041;28;20253;-92
2022/11/11 09:48:03;;;;;;;11.37;7.30;;;;;;;;;;6624035;28;20178;-91
2022/11/11 09:51:19;;;;;;;12.00;7.37;;;;;;;;;;6622444;28;20200;-92
2022/11/11 09:54:33;;;;;;;11.40;7.27;;;;;;;;;;6622897;28;20171;-91
2022/11/11 09:57:46;;;;;;;9.20;7.13;;;;;;;;;;6623233;28;20230;-92
2022/11/11 10:01:06;;;;;;;8.90;7.40;;;;;;;;;;6622702;28;20258;-93
2022/11/11 10:04:25;;;;;;;11.23;8.40;;;;;;;;;;6621170;28;20167;-93
2022/11/11 10:08:07;;;;;;;10.80;7.90;;;;;;;;;;6622713;28;20184;-93
2022/11/11 10:11:27;;;;;;;13.50;7.63;;;;;;;;;;6586368;28;20195;-92
2022/11/11 10:14:39;;;;;;;9.47;7.40;;;;;;;;;;6622707;28;20182;-93
2022/11/11 10:18:04;;;;;;;13.77;7.83;;;;;;;;;;6623028;28;20199;-93
2022/11/11 10:21:16;;;;;;;8.13;6.80;;;;;;;;;;6624159;28;20176;-92
2022/11/11 10:24:31;;;;;;;10.60;7.13;;;;;;;;;;6623348;28;20172;-92
2022/11/11 10:27:44;;;;;;;10.67;7.27;;;;;;;;;;6621989;28;20717;-93
2022/11/11 10:30:54;;;;;;;11.93;7.97;;;;;;;;;;6623676;28;20183;-93
2022/11/11 10:34:09;;;;;;;9.27;7.27;;;;;;;;;;6622559;28;20175;-93
2022/11/11 10:37:49;;;;;;;9.53;6.93;;;;;;;;;;6621644;28;20207;-93
2022/11/11 10:41:18;;;;;;;8.97;6.90;;;;;;;;;;6604201;28;20271;-93
2022/11/11 10:44:31;;;;;;;9.13;7.00;;;;;;;;;;6621915;28;20262;-92
2022/11/11 10:47:47;;;;;;;12.23;7.17;;;;;;;;;;6621179;28;20202;-93
2022/11/11 10:50:59;;;;;;;11.73;7.67;;;;;;;;;;6622178;28;20172;-92
2022/11/11 10:54:30;;;;;;;11.30;7.43;;;;;;;;;;6622459;28;20188;-93
2022/11/11 10:57:44;;;;;;;7.87;6.60;;;;;;;;;;6620138;28;20234;-93
2022/11/11 11:00:55;;;;;;;9.67;7.70;;;;;;;;;;6622607;28;20247;-92
2022/11/11 11:04:09;;;;;;;10.57;7.80;;;;;;;;;;6620875;28;20616;-93
2022/11/11 11:07:23;;;;;;;10.43;8.80;;;;;;;;;;6620336;28;20179;-93
2022/11/11 11:10:41;;;;;;;11.37;8.27;;;;;;;;;;6621514;28;20632;-93
2022/11/11 11:13:52;;;;;;;10.20;7.53;;;;;;;;;;6621015;28;20176;-92
2022/11/11 11:17:08;;;;;;;9.63;7.50;;;;;;;;;;6622308;28;20211;-93
2022/11/11 11:20:19;;;;;;;11.80;7.70;;;;;;;;;;6622560;28;20180;-93
2022/11/11 11:23:36;;;;;;;10.33;7.60;;;;;;;;;;6621035;28;20183;-92
2022/11/11 11:26:47;;;;;;;9.13;6.97;;;;;;;;;;6620712;28;20372;-91
2022/11/11 11:30:08;;;;;;;10.60;7.40;;;;;;;;;;6621379;28;20179;-93
2022/11/11 11:33:18;;;;;;;10.23;6.77;;;;;;;;;;6620747;28;20225;-93
2022/11/11 11:36:29;;;;;;;8.90;7.17;;;;;;;;;;6620372;28;20231;-92
2022/11/11 11:39:39;;;;;;;8.90;7.20;;;;;;;;;;6622063;28;20176;-93
2022/11/11 11:42:50;;;;;;;11.37;6.80;;;;;;;;;;6621972;28;20172;-93
2022/11/11 11:46:13;;;;;;;11.07;7.43;;;;;;;;;;6621673;28;20183;-92
2022/11/11 11:49:32;;;;;;;11.60;7.03;;;;;;;;;;6620292;28;20191;-93
2022/11/11 11:52:42;;;;;;;9.97;6.53;;;;;;;;;;6620614;28;20179;-92
2022/11/11 11:56:01;;;;;;;10.80;7.70;;;;;;;;;;6621737;28;20175;-92
2022/11/11 11:59:30;;;;;;;11.67;7.53;;;;;;;;;;6626120;28;20239;-93
2022/11/11 12:02:49;;;;;;;10.23;6.80;;;;;;;;;;6625053;28;20191;-92
2022/11/11 12:06:03;;;;;;;13.57;7.67;;;;;;;;;;6625985;28;20168;-93
2022/11/11 12:09:16;;;;;;;13.87;8.83;;;;;;;;;;6624436;28;20206;-93
2022/11/11 12:12:36;;;;;;;10.30;6.70;;;;;;;;;;6626400;28;20206;-94
2022/11/11 12:15:57;;;;;;;13.17;7.30;;;;;;;;;;6625226;28;20681;-93
2022/11/11 12:19:10;;;;;;;10.07;6.80;;;;;;;;;;6625471;28;20180;-93
2022/11/11 12:22:24;;;;;;;8.80;6.87;;;;;;;;;;6626176;28;20515;-93
2022/11/11 12:25:46;;;;;;;12.67;7.93;;;;;;;;;;6625891;28;20175;-93
2022/11/11 12:29:16;;;;;;;9.33;6.57;;;;;;;;;;6625801;28;20176;-93
2022/11/11 12:32:41;;;;;;;10.67;6.80;;;;;;;;;;6625837;28;20183;-92
2022/11/11 12:35:57;;;;;;;8.63;6.07;;;;;;;;;;6626178;28;20167;-92
2022/11/11 12:39:21;;;;;;;10.73;6.90;;;;;;;;;;6621336;28;20667;-91
2022/11/11 12:42:50;;;;;;;9.17;6.27;;;;;;;;;;6622480;28;20210;-91
2022/11/11 12:46:04;;;;;;;11.53;6.20;;;;;;;;;;6622935;28;20254;-90
2022/11/11 12:49:15;;;;;;;10.50;6.77;;;;;;;;;;6624927;28;20188;-91
2022/11/11 12:52:31;;;;;;;11.10;6.80;;;;;;;;;;6625366;28;20164;-91
2022/11/11 12:55:41;;;;;;;11.43;7.07;;;;;;;;;;6622358;28;20229;-91
2022/11/11 12:59:03;;;;;;;10.80;7.47;;;;;;;;;;6624086;28;20223;-91
2022/11/11 13:02:17;;;;;;;10.83;7.60;;;;;;;;;;6624260;28;20191;-92
2022/11/11 13:05:53;;;;;;;11.33;7.80;;;;;;;;;;6624318;28;20251;-91
2022/11/11 13:09:18;;;;;;;12.67;9.13;;;;;;;;;;6602326;28;20176;-91
2022/11/11 13:12:31;;;;;;;13.00;8.97;;;;;;;;;;6623215;28;20186;-91
2022/11/11 13:15:42;;;;;;;12.23;8.97;;;;;;;;;;6624062;28;20172;-91
2022/11/11 13:19:15;;;;;;;16.97;9.23;;;;;;;;;;6623193;28;20352;-91
2022/11/11 13:22:27;;;;;;;15.13;10.57;;;;;;;;;;6623588;28;20172;-91
2022/11/11 13:25:39;;;;;;;13.80;9.37;;;;;;;;;;6621217;28;20237;-90
2022/11/11 13:28:52;;;;;;;10.60;7.93;;;;;;;;;;6622751;28;20167;-91
2022/11/11 13:32:04;;;;;;;12.30;8.90;;;;;;;;;;6624277;28;20258;-91
2022/11/11 13:35:21;;;;;;;15.43;9.80;;;;;;;;;;6624267;28;20172;-92
2022/11/11 13:38:36;;;;;;;16.70;11.47;;;;;;;;;;6624139;28;20246;-92
2022/11/11 13:41:49;;;;;;;14.23;9.00;;;;;;;;;;6624736;28;20180;-93
2022/11/11 13:45:01;;;;;;;13.50;9.30;;;;;;;;;;6624331;28;20561;-94
2022/11/11 13:48:23;;;;;;;19.80;12.17;;;;;;;;;;6623015;28;20186;-93
2022/11/11 13:51:41;;;;;;;15.33;10.03;;;;;;;;;;6590383;28;20545;-95
2022/11/11 13:55:17;;;;;;;14.73;8.87;;;;;;;;;;6624351;28;20187;-94
2022/11/11 14:02:25;;;;;;;11.20;8.10;;;;;;;;;;7101769;22;20245;-94
2022/11/11 14:05:37;;;;;;;11.03;7.83;;;;;;;;;;6546520;28;20181;-94
2022/11/11 14:12:43;;;;;;;13.87;8.23;;;;;;;;;;6546417;28;20185;-95
2022/11/11 14:19:55;;;;;;;10.73;7.90;;;;;;;;;;6545272;28;20184;-94
2022/11/11 14:26:58;;;;;;;15.63;8.83;;;;;;;;;;6545474;28;20169;-94
2022/11/11 14:30:11;;;;;;;11.73;9.27;;;;;;;;;;6544272;28;20189;-94
2022/11/11 14:33:47;;;;;;;20.30;14.53;;;;;;;;;;6543881;28;20189;-94
2022/11/11 14:40:56;;;;;;;12.77;8.23;;;;;;;;;;6536135;28;20243;-96
2022/11/11 14:44:25;;;;;;;13.53;10.17;;;;;;;;;;6587322;28;20195;-94
2022/11/11 14:47:35;;;;;;;12.07;7.87;;;;;;;;;;6596230;28;20176;-92
2022/11/11 14:50:45;;;;;;;15.27;9.17;;;;;;;;;;6595869;28;20203;-94
2022/11/11 14:53:56;;;;;;;11.03;8.60;;;;;;;;;;6596103;28;20219;-93
2022/11/11 14:57:10;;;;;;;12.23;8.80;;;;;;;;;;6596083;28;20216;-93
2022/11/11 15:00:28;;;;;;;17.37;10.93;;;;;;;;;;6559593;28;20555;-94
2022/11/11 15:03:38;;;;;;;26.33;21.33;;;;;;;;;;6545331;28;20264;-92
2022/11/11 15:06:51;;;;;;;17.00;11.30;;;;;;;;;;6544558;28;20578;-92
2022/11/11 15:10:06;;;;;;;17.57;10.40;;;;;;;;;;6544387;28;20174;-94
2022/11/11 15:13:35;;;;;;;26.43;20.87;;;;;;;;;;6546236;28;20252;-92
2022/11/11 15:16:45;;;;;;;32.07;16.40;;;;;;;;;;6544588;28;20236;-92
2022/11/11 15:19:56;;;;;;;24.73;14.00;;;;;;;;;;6544282;28;20172;-92
2022/11/11 15:23:28;;;;;;;24.93;15.30;;;;;;;;;;6557823;28;20188;-96
2022/11/11 15:26:54;;;;;;;22.30;13.23;;;;;;;;;;6554558;28;20185;-95
2022/11/11 15:30:17;;;;;;;20.70;13.03;;;;;;;;;;6548845;28;20190;-94
2022/11/11 15:33:46;;;;;;;44.87;28.90;;;;;;;;;;6570087;28;20223;-95
2022/11/11 15:36:58;;;;;;;23.57;13.67;;;;;;;;;;6558294;28;20211;-96
2022/11/11 15:40:17;;;;;;;30.63;17.90;;;;;;;;;;6556766;28;20504;-93
2022/11/11 15:43:29;;;;;;;34.37;19.83;;;;;;;;;;6557523;28;20181;-95
2022/11/11 15:46:41;;;;;;;33.50;18.40;;;;;;;;;;6559551;28;20182;-94
2022/11/11 15:49:51;;;;;;;29.97;16.83;;;;;;;;;;6551900;28;20174;-94
2022/11/11 15:53:16;;;;;;;26.87;17.17;;;;;;;;;;6558459;28;20289;-94
2022/11/11 15:56:32;;;;;;;28.03;16.47;;;;;;;;;;6542079;28;20296;-95
2022/11/11 15:59:43;;;;;;;20.77;13.33;;;;;;;;;;6537055;28;20733;-95
2022/11/11 16:02:54;;;;;;;18.27;12.13;;;;;;;;;;6558653;28;20245;-95
2022/11/11 16:06:07;;;;;;;17.37;10.63;;;;;;;;;;6545655;28;20256;-92
2022/11/11 16:09:23;;;;;;;19.00;11.93;;;;;;;;;;6559210;28;20176;-93
2022/11/11 16:12:42;;;;;;;16.27;10.93;;;;;;;;;;6551093;28;20182;-94
2022/11/11 16:15:58;;;;;;;23.07;15.77;;;;;;;;;;6546807;28;20178;-94
2022/11/11 16:19:11;;;;;;;20.67;12.83;;;;;;;;;;6549198;28;20209;-94
2022/11/11 16:22:26;;;;;;;24.83;14.63;;;;;;;;;;6547567;28;20177;-94
2022/11/11 16:25:37;;;;;;;25.63;15.97;;;;;;;;;;6547897;28;20264;-94
2022/11/11 16:28:52;;;;;;;22.87;15.50;;;;;;;;;;6531044;28;20642;-95
2022/11/11 16:32:20;;;;;;;21.83;15.83;;;;;;;;;;6549510;28;20177;-93
2022/11/11 16:35:35;;;;;;;26.63;16.40;;;;;;;;;;6548336;28;20201;-93
2022/11/11 16:38:46;;;;;;;21.87;14.90;;;;;;;;;;6548208;28;20205;-94
2022/11/11 16:41:58;;;;;;;17.27;11.17;;;;;;;;;;6547188;28;20623;-94
2022/11/11 16:45:18;;;;;;;13.87;10.07;;;;;;;;;;6548123;28;20204;-93
2022/11/11 16:48:50;;;;;;;13.47;8.80;;;;;;;;;;6547164;28;20710;-93
2022/11/11 16:52:07;;;;;;;13.20;7.90;;;;;;;;;;6548909;28;20166;-91
2022/11/11 16:55:30;;;;;;;12.77;9.17;;;;;;;;;;6547915;28;20633;-91
2022/11/11 16:58:41;;;;;;;10.33;8.60;;;;;;;;;;6548438;28;20272;-91
2022/11/11 17:01:53;;;;;;;11.30;9.33;;;;;;;;;;6547867;28;20236;-91
2022/11/11 17:05:03;;;;;;;13.00;8.50;;;;;;;;;;6546412;28;20204;-91
2022/11/11 17:08:33;;;;;;;15.33;10.40;;;;;;;;;;6547490;28;20173;-90
2022/11/11 17:11:44;;;;;;;11.57;8.10;;;;;;;;;;6547129;28;20193;-91
2022/11/11 17:14:54;;;;;;;12.60;9.00;;;;;;;;;;6548165;28;20181;-92
2022/11/11 17:18:07;;;;;;;15.00;9.93;;;;;;;;;;6547136;28;20678;-91
2022/11/11 17:21:18;;;;;;;13.57;9.60;;;;;;;;;;6548313;28;20180;-91
2022/11/11 17:24:30;;;;;;;12.33;9.00;;;;;;;;;;6547729;28;20198;-92
2022/11/11 17:27:40;;;;;;;12.70;9.17;;;;;;;;;;6546767;28;20193;-92
2022/11/11 17:30:51;;;;;;;15.47;9.43;;;;;;;;;;6547062;28;20170;-93
2022/11/11 17:34:04;;;;;;;14.63;9.57;;;;;;;;;;6545976;28;20272;-92
2022/11/11 17:37:15;;;;;;;10.70;8.80;;;;;;;;;;6545302;28;20742;-92
2022/11/11 17:40:26;;;;;;;12.83;10.10;;;;;;;;;;6529659;28;20280;-92
2022/11/11 17:43:36;;;;;;;15.53;10.80;;;;;;;;;;6545078;28;20240;-91
2022/11/11 17:46:47;;;;;;;14.60;10.97;;;;;;;;;;6546694;28;20178;-92
2022/11/11 17:49:58;;;;;;;14.17;10.57;;;;;;;;;;6546530;28;20201;-91
2022/11/11 17:53:09;;;;;;;13.13;10.53;;;;;;;;;;6546725;28;20170;-95
2022/11/11 17:56:20;;;;;;;14.63;9.07;;;;;;;;;;6544679;28;20185;-94
2022/11/11 18:02:51;;;;;;;16.57;11.60;;;;;;;;;;7638681;23;20248;-94
2022/11/11 18:06:03;;;;;;;13.60;10.03;;;;;;;;;;6616578;28;20615;-94
2022/11/11 18:09:13;;;;;;;18.40;11.90;;;;;;;;;;6610642;28;20548;-94
2022/11/11 18:12:23;;;;;;;16.20;10.07;;;;;;;;;;6612638;28;20189;-93
2022/11/11 18:15:34;;;;;;;15.40;11.20;;;;;;;;;;6617979;28;20186;-93
2022/11/11 18:18:45;;;;;;;18.77;11.00;;;;;;;;;;6618058;28;20245;-91
2022/11/11 18:21:56;;;;;;;16.57;11.00;;;;;;;;;;6618965;28;20176;-92
2022/11/11 18:25:06;;;;;;;14.10;11.27;;;;;;;;;;6619129;28;20191;-93
2022/11/11 18:28:17;;;;;;;11.60;10.20;;;;;;;;;;6619340;28;20182;-94
2022/11/11 18:31:27;;;;;;;12.87;10.13;;;;;;;;;;6620453;28;20203;-93
2022/11/11 18:34:39;;;;;;;15.97;11.27;;;;;;;;;;6616632;28;20713;-94
2022/11/11 18:37:49;;;;;;;17.60;11.73;;;;;;;;;;6618353;28;20218;-94
2022/11/11 18:41:00;;;;;;;15.10;11.57;;;;;;;;;;6619448;28;20184;-94
2022/11/11 18:44:10;;;;;;;15.50;12.83;;;;;;;;;;6618065;28;20179;-92
2022/11/11 18:47:21;;;;;;;19.53;14.67;;;;;;;;;;6619640;28;20183;-94
2022/11/11 18:50:31;;;;;;;30.97;19.47;;;;;;;;;;6618977;28;20206;-96
2022/11/11 18:53:42;;;;;;;17.43;13.70;;;;;;;;;;6620068;28;20168;-94
2022/11/11 18:56:53;;;;;;;16.77;12.90;;;;;;;;;;6616899;28;20211;-94
2022/11/11 19:00:04;;;;;;;17.60;14.40;;;;;;;;;;6621301;28;20514;-95
2022/11/11 19:03:14;;;;;;;17.30;13.03;;;;;;;;;;6620555;28;20269;-95
2022/11/11 19:06:26;;;;;;;17.40;13.30;;;;;;;;;;6618703;28;20513;-95
2022/11/11 19:09:38;;;;;;;18.97;13.37;;;;;;;;;;6619491;28;20183;-92
2022/11/11 19:12:49;;;;;;;14.77;12.77;;;;;;;;;;6620951;28;20176;-94
2022/11/11 19:16:06;;;;;;;20.47;13.73;;;;;;;;;;6620639;28;20270;-93
2022/11/11 19:19:17;;;;;;;17.27;13.07;;;;;;;;;;6618773;28;20211;-92
2022/11/11 19:22:31;;;;;;;16.73;12.37;;;;;;;;;;6618839;28;20179;-92
2022/11/11 19:25:41;;;;;;;19.87;13.23;;;;;;;;;;6620946;28;20168;-94
2022/11/11 19:28:52;;;;;;;17.30;12.33;;;;;;;;;;6621193;28;20278;-92
2022/11/11 19:32:02;;;;;;;17.80;12.73;;;;;;;;;;6616888;28;20182;-94
2022/11/11 19:35:13;;;;;;;16.30;12.60;;;;;;;;;;6621198;28;20272;-94
2022/11/11 19:38:23;;;;;;;15.67;13.10;;;;;;;;;;6616822;28;20327;-94
2022/11/11 19:41:34;;;;;;;17.77;14.23;;;;;;;;;;6620258;28;20225;-95
2022/11/11 19:44:44;;;;;;;17.50;13.53;;;;;;;;;;6618065;28;20171;-94
2022/11/11 19:47:54;;;;;;;18.93;14.00;;;;;;;;;;6608098;28;20264;-94
2022/11/11 19:51:06;;;;;;;20.27;14.47;;;;;;;;;;6614396;28;20614;-94
2022/11/11 19:54:16;;;;;;;19.97;13.67;;;;;;;;;;6615852;28;20180;-95
2022/11/11 19:57:27;;;;;;;18.13;13.00;;;;;;;;;;6616369;28;20656;-92
2022/11/11 20:00:37;;;;;;;17.87;12.93;;;;;;;;;;6618753;28;20179;-92
2022/11/11 20:03:48;;;;;;;19.00;13.47;;;;;;;;;;6617664;28;20242;-92
2022/11/11 20:06:58;;;;;;;22.57;16.67;;;;;;;;;;6617844;28;20183;-93
2022/11/11 20:10:08;;;;;;;20.47;15.13;;;;;;;;;;6616146;28;20182;-92
2022/11/11 20:13:19;;;;;;;19.57;13.30;;;;;;;;;;6617529;28;20184;-94
2022/11/11 20:16:29;;;;;;;18.47;12.70;;;;;;;;;;6617866;28;20219;-94
2022/11/11 20:19:41;;;;;;;18.87;12.87;;;;;;;;;;6621390;28;20195;-94
2022/11/11 20:22:51;;;;;;;16.17;12.63;;;;;;;;;;6624446;28;20686;-94